createdAt,value
2022-08-11T00:04:37.945Z,100098.47
2022-08-11T00:10:40.469Z,100092.66
2022-08-11T00:16:44.227Z,100099.50
2022-08-11T00:22:48.131Z,100087.16
2022-08-11T00:28:52.159Z,100089.28
2022-08-11T00:35:51.906Z,100087.53
2022-08-11T00:41:55.785Z,100087.22
2022-08-11T00:48:01.656Z,100087.88
2022-08-11T00:54:52.704Z,100082.53
2022-08-11T01:01:22.835Z,100091.66
2022-08-11T01:08:00.528Z,100086.94
2022-08-11T01:14:51.447Z,100080.75
2022-08-11T01:21:35.999Z,100091.66
2022-08-11T01:27:56.535Z,100089.13
2022-08-11T01:34:44.129Z,100087.38
2022-08-11T01:41:58.266Z,100087.84
2022-08-11T01:48:23.193Z,100084.03
2022-08-11T01:54:37.996Z,100093.00
2022-08-11T02:01:16.352Z,100097.44
2022-08-11T02:07:49.817Z,100096.03
2022-08-11T02:14:15.221Z,100097.44
2022-08-11T02:21:15.541Z,100095.38
2022-08-11T02:27:26.786Z,100091.31
2022-08-11T02:33:36.610Z,100093.00
2022-08-11T02:39:59.577Z,100096.16
2022-08-11T02:46:05.329Z,100094.50
2022-08-11T02:52:32.417Z,100090.75
2022-08-11T02:59:17.983Z,100083.72
2022-08-11T03:05:56.754Z,100087.44
2022-08-11T03:12:25.707Z,100088.72
2022-08-11T03:18:56.223Z,100090.38
2022-08-11T03:25:18.231Z,100096.81
2022-08-11T03:31:52.261Z,100094.53
2022-08-11T03:38:03.430Z,100089.75
2022-08-11T03:44:47.128Z,100096.22
2022-08-11T03:51:09.879Z,100100.97
2022-08-11T03:57:27.159Z,100106.31
2022-08-11T04:04:09.518Z,100101.81
2022-08-11T04:10:33.112Z,100105.31
2022-08-11T04:17:22.631Z,100101.75
2022-08-11T04:24:35.707Z,100103.03
2022-08-11T04:31:50.884Z,100106.38
2022-08-11T04:38:44.846Z,100103.88
2022-08-11T04:45:25.421Z,100101.19
2022-08-11T04:52:19.295Z,100105.16
2022-08-11T04:59:31.615Z,100098.69
2022-08-11T05:06:13.936Z,100106.72
2022-08-11T05:12:53.460Z,100110.41
2022-08-11T05:19:16.195Z,100108.38
2022-08-11T05:26:45.172Z,100111.59
2022-08-11T05:32:38.951Z,100109.69
2022-08-11T05:39:08.038Z,100121.03
2022-08-11T05:46:01.262Z,100108.75
2022-08-11T05:52:17.064Z,100105.25
2022-08-11T05:58:20.615Z,100114.09
2022-08-11T06:04:24.750Z,100106.78
2022-08-11T06:10:38.149Z,100108.31
2022-08-11T06:16:42.797Z,100118.34
2022-08-11T06:22:52.831Z,100115.84
2022-08-11T06:28:59.583Z,100128.47
2022-08-11T06:35:46.069Z,100125.75
2022-08-11T06:42:09.392Z,100128.34
2022-08-11T06:48:20.047Z,100127.28
2022-08-11T06:54:23.203Z,100129.50
2022-08-11T07:00:29.593Z,100125.34
2022-08-11T07:07:29.700Z,100127.88
2022-08-11T07:13:54.160Z,100128.69
2022-08-11T07:20:19.813Z,100127.00
2022-08-11T07:26:44.739Z,100123.63
2022-08-11T07:32:58.165Z,100119.66
2022-08-11T07:39:01.227Z,100126.59
2022-08-11T07:45:26.671Z,100128.22
2022-08-11T07:51:47.526Z,100132.66
2022-08-11T07:58:15.757Z,100120.47
2022-08-11T08:04:43.094Z,100116.59
2022-08-11T08:11:07.321Z,100112.53
2022-08-11T08:17:28.627Z,100121.31
2022-08-11T08:23:34.381Z,100112.47
2022-08-11T08:29:57.231Z,100108.53
2022-08-11T08:36:14.004Z,100108.75
2022-08-11T08:42:29.817Z,100111.75
2022-08-11T08:48:33.464Z,100115.69
2022-08-11T08:54:42.256Z,100099.47
2022-08-11T09:00:47.370Z,100093.59
2022-08-11T09:06:52.305Z,100091.84
2022-08-11T09:12:55.215Z,100083.47
2022-08-11T09:19:00.448Z,100079.31
2022-08-11T09:25:21.883Z,100083.13
2022-08-11T09:31:24.207Z,100067.84
2022-08-11T09:37:54.442Z,100067.16
2022-08-11T09:44:19.288Z,100057.41
2022-08-11T09:50:22.665Z,100058.06
2022-08-11T09:56:44.161Z,100033.56
2022-08-11T10:02:49.722Z,100039.34
2022-08-11T10:08:54.643Z,100028.06
2022-08-11T10:15:34.972Z,100029.53
2022-08-11T10:22:07.347Z,100005.22
2022-08-11T10:28:17.123Z,100005.47
2022-08-11T10:34:32.955Z,100005.91
2022-08-11T10:40:40.328Z,99986.28
2022-08-11T10:47:00.882Z,99994.38
2022-08-11T10:53:22.307Z,99997.28
2022-08-11T10:59:28.572Z,99988.56
2022-08-11T11:05:32.821Z,99993.47
2022-08-11T11:11:58.337Z,99975.00
2022-08-11T11:18:19.484Z,99982.38
2022-08-11T11:24:57.687Z,99958.47
2022-08-11T11:31:15.819Z,99961.50
2022-08-11T11:37:18.999Z,99957.50
2022-08-11T11:43:21.260Z,99960.53
2022-08-11T11:49:28.713Z,99950.41
2022-08-11T11:55:31.792Z,99939.13
2022-08-11T12:01:34.720Z,99947.56
2022-08-11T12:08:05.030Z,99941.91
2022-08-11T12:14:20.241Z,99931.44
2022-08-11T12:20:33.354Z,99915.06
2022-08-11T12:27:15.785Z,99912.75
2022-08-11T12:33:24.196Z,99901.75
2022-08-11T12:40:15.868Z,99891.56
2022-08-11T12:46:37.730Z,99884.47
2022-08-11T12:52:49.424Z,99870.50
2022-08-11T12:58:53.581Z,99872.56
2022-08-11T13:04:59.196Z,99872.47
2022-08-11T13:11:21.548Z,99858.00
2022-08-11T13:17:43.615Z,99862.25
2022-08-11T13:24:01.507Z,99846.22
2022-08-11T13:30:39.087Z,99842.44
2022-08-11T13:36:43.510Z,99839.56
2022-08-11T13:42:46.973Z,99823.53
2022-08-11T13:48:50.683Z,99804.78
2022-08-11T13:55:03.608Z,99805.34
2022-08-11T14:02:03.453Z,99807.19
2022-08-11T14:07:39.576Z,99801.16
2022-08-11T14:13:48.448Z,99798.41
2022-08-11T14:19:53.779Z,99790.47
2022-08-11T14:26:16.316Z,99806.16
2022-08-11T14:32:22.501Z,99795.19
2022-08-11T14:38:24.832Z,99793.69
2022-08-11T14:44:46.159Z,99792.31
2022-08-11T14:50:48.467Z,99781.41
2022-08-11T14:56:50.614Z,99756.41
2022-08-11T15:03:13.413Z,99761.91
2022-08-11T15:09:16.884Z,99755.31
2022-08-11T15:15:39.075Z,99755.63
2022-08-11T15:21:59.944Z,99751.53
2022-08-11T15:28:22.549Z,99751.44
2022-08-11T15:34:47.499Z,99745.66
2022-08-11T15:41:11.190Z,99743.84
2022-08-11T15:47:14.407Z,99742.88
2022-08-11T15:53:43.548Z,99738.31
2022-08-11T16:00:24.543Z,99732.06
2022-08-11T16:06:28.006Z,99728.25
2022-08-11T16:13:05.308Z,99734.31
2022-08-11T16:19:11.223Z,99725.69
2022-08-11T16:27:03.734Z,99727.03
2022-08-11T16:32:05.247Z,99730.66
2022-08-11T16:38:26.840Z,99719.28
2022-08-11T16:44:48.388Z,99714.66
2022-08-11T16:50:50.956Z,99709.03
2022-08-11T16:56:54.303Z,99710.16
2022-08-11T17:03:19.331Z,99708.59
2022-08-11T17:09:43.321Z,99701.47
2022-08-11T17:16:08.468Z,99714.34
2022-08-11T17:22:29.442Z,99708.84
2022-08-11T17:28:33.850Z,99712.63
2022-08-11T17:34:55.608Z,99698.09
2022-08-11T17:41:23.297Z,99709.22
2022-08-11T17:47:46.751Z,99708.91
2022-08-11T17:54:23.899Z,99702.97
2022-08-11T18:00:27.909Z,99711.16
2022-08-11T18:06:34.544Z,99713.34
2022-08-11T18:12:55.775Z,99722.78
2022-08-11T18:19:16.953Z,99719.44
2022-08-11T18:25:47.650Z,99722.47
2022-08-11T18:32:11.592Z,99724.44
2022-08-11T18:38:46.121Z,99725.97
2022-08-11T18:45:09.508Z,99719.66
2022-08-11T18:51:36.882Z,99720.16
2022-08-11T18:57:59.368Z,99715.31
2022-08-11T19:04:23.810Z,99719.50
2022-08-11T19:10:50.636Z,99716.28
2022-08-11T19:17:13.266Z,99728.91
2022-08-11T19:24:00.244Z,99726.91
2022-08-11T19:30:21.392Z,99724.06
2022-08-11T19:36:44.712Z,99730.00
2022-08-11T19:43:14.842Z,99738.53
2022-08-11T19:49:46.874Z,99738.88
2022-08-11T19:56:11.052Z,99736.97
2022-08-11T20:02:31.908Z,99736.41
2022-08-11T20:08:58.614Z,99741.91
2022-08-11T20:15:21.083Z,99753.16
2022-08-11T20:21:42.797Z,99749.31
2022-08-11T20:28:05.059Z,99747.09
2022-08-11T20:34:28.221Z,99758.38
2022-08-11T20:40:50.177Z,99761.09
2022-08-11T20:47:12.987Z,99757.50
2022-08-11T20:53:40.656Z,99764.38
2022-08-11T21:00:02.493Z,99764.91
2022-08-11T21:06:31.444Z,99768.72
2022-08-11T21:12:55.432Z,99770.66
2022-08-11T21:19:59.921Z,99775.53
2022-08-11T21:26:42.999Z,99780.16
2022-08-11T21:33:04.381Z,99774.41
2022-08-11T21:39:26.839Z,99781.47
2022-08-11T21:45:49.283Z,99780.03
2022-08-11T21:52:09.990Z,99788.75
2022-08-11T21:58:33.114Z,99768.25
2022-08-11T22:04:55.184Z,99777.22
2022-08-11T22:11:15.925Z,99778.09
2022-08-11T22:17:57.781Z,99772.06
2022-08-11T22:24:30.183Z,99770.19
2022-08-11T22:30:51.254Z,99767.50
2022-08-11T22:37:15.591Z,99774.28
2022-08-11T22:43:48.525Z,99776.22
2022-08-11T22:50:16.738Z,99779.25
2022-08-11T22:56:38.997Z,99779.22
2022-08-11T23:03:00.131Z,99783.28
2022-08-11T23:09:23.020Z,99789.41
2022-08-11T23:15:44.307Z,99788.72
2022-08-11T23:22:06.868Z,99784.28
2022-08-11T23:28:32.292Z,99792.00
2022-08-11T23:35:04.364Z,99784.59
2022-08-11T23:41:26.327Z,99779.00
2022-08-11T23:47:50.328Z,99782.41
2022-08-11T23:54:11.629Z,99786.25
